Time;durP1;ratioP1;P1;durP2;ratioP2;P2;SDS_P1;SDS_P2;PMS_P1;PMS_P2;Temp;Humidity;BMP_temperature;BMP_pressure;BME280_temperature;BME280_humidity;BME280_pressure;Samples;Min_cycle;Max_cycle;Signal;HPM_P1;HPM_P2
2021/12/02 00:01:26;;;;;;;4.22;0.75;;;;;;;4.70;100.00;99817.03;5070127;28;20421;-31
2021/12/02 00:03:55;;;;;;;3.47;0.50;;;;;;;4.70;100.00;99808.72;5070851;28;20139;-32
2021/12/02 00:06:23;;;;;;;8.65;0.80;;;;;;;4.74;100.00;99826.41;5070667;28;20053;-33
2021/12/02 00:08:52;;;;;;;8.57;0.80;;;;;;;4.77;100.00;99847.94;5059516;28;20041;-37
2021/12/02 00:11:21;;;;;;;6.57;0.80;;;;;;;4.80;100.00;99863.94;5070503;28;20052;-34
2021/12/02 00:13:55;;;;;;;10.52;1.15;;;;;;;4.78;100.00;99878.06;5069932;28;20063;-37
2021/12/02 00:16:31;;;;;;;7.90;0.70;;;;;;;4.68;100.00;99861.53;5070283;28;20037;-31
2021/12/02 00:21:50;;;;;;;6.80;1.13;;;;;;;4.50;100.00;99865.75;5069699;28;20127;-38
2021/12/02 00:24:20;;;;;;;7.15;0.90;;;;;;;4.47;100.00;99885.66;5070744;28;20052;-33
2021/12/02 00:26:50;;;;;;;7.88;0.90;;;;;;;4.46;100.00;99885.94;5070043;28;20048;-29
2021/12/02 00:29:20;;;;;;;9.98;0.82;;;;;;;4.40;100.00;99881.53;5070017;28;20497;-36
2021/12/02 00:31:52;;;;;;;4.07;0.50;;;;;;;4.38;100.00;99883.78;5068926;28;20052;-31
2021/12/02 00:34:20;;;;;;;5.78;0.50;;;;;;;4.35;100.00;99878.81;5067537;28;20048;-38
2021/12/02 00:36:48;;;;;;;6.93;0.80;;;;;;;4.35;100.00;99873.28;5069664;28;20063;-34
2021/12/02 00:39:19;;;;;;;4.88;1.30;;;;;;;4.38;100.00;99867.22;5070450;28;20055;-32
2021/12/02 00:41:47;;;;;;;6.22;0.73;;;;;;;4.37;100.00;99863.63;5069855;28;20058;-31
2021/12/02 00:44:16;;;;;;;6.45;0.70;;;;;;;4.39;100.00;99860.56;5070170;28;20041;-41
2021/12/02 00:46:45;;;;;;;3.35;0.82;;;;;;;4.37;100.00;99855.34;5070432;28;20044;-30
2021/12/02 00:49:17;;;;;;;5.63;0.65;;;;;;;4.39;100.00;99857.81;5069651;28;20055;-36
2021/12/02 00:51:47;;;;;;;9.05;1.55;;;;;;;4.36;100.00;99853.69;5071829;28;20044;-34
2021/12/02 00:54:14;;;;;;;8.10;0.70;;;;;;;4.34;100.00;99858.66;5073783;28;20493;-36
2021/12/02 00:56:42;;;;;;;6.53;0.70;;;;;;;4.32;100.00;99865.56;5073157;28;20048;-38
2021/12/02 00:59:10;;;;;;;4.22;0.65;;;;;;;4.30;100.00;99867.78;5073717;28;20048;-33
2021/12/02 01:01:39;;;;;;;4.88;0.82;;;;;;;4.28;100.00;99867.22;5073606;28;20070;-35
2021/12/02 01:04:10;;;;;;;6.05;1.00;;;;;;;4.29;100.00;99869.72;5073281;28;20106;-28
2021/12/02 01:06:41;;;;;;;4.80;0.80;;;;;;;4.32;100.00;99865.56;5073937;28;20044;-29
2021/12/02 01:09:11;;;;;;;8.60;0.90;;;;;;;4.34;100.00;99860.59;5064582;28;20083;-35
2021/12/02 01:11:41;;;;;;;5.00;0.80;;;;;;;4.38;100.00;99847.88;5073187;28;20131;-33
2021/12/02 01:14:10;;;;;;;6.32;0.90;;;;;;;4.40;100.00;99843.69;5073276;28;20032;-31
2021/12/02 01:16:38;;;;;;;6.15;0.70;;;;;;;4.43;100.00;99834.84;5073231;28;20084;-36
2021/12/02 01:19:07;;;;;;;5.20;1.00;;;;;;;4.45;100.00;99845.59;5072985;28;20143;-35
2021/12/02 01:21:38;;;;;;;7.38;1.00;;;;;;;4.48;100.00;99869.91;5073627;28;20414;-34
2021/12/02 01:24:11;;;;;;;8.68;1.10;;;;;;;4.45;100.00;99862.19;5072825;28;20049;-38
2021/12/02 01:26:39;;;;;;;6.20;1.00;;;;;;;4.39;100.00;99868.88;5073630;28;20135;-31
2021/12/02 01:29:07;;;;;;;12.75;1.08;;;;;;;4.35;100.00;99867.78;5072831;28;20059;-37
2021/12/02 01:31:37;;;;;;;10.88;1.10;;;;;;;4.33;100.00;99854.25;5072550;28;20056;-33
2021/12/02 01:34:07;;;;;;;8.98;1.00;;;;;;;4.34;100.00;99853.13;5072655;28;20527;-30
2021/12/02 01:36:36;;;;;;;12.00;1.30;;;;;;;4.34;100.00;99855.06;5073332;28;20052;-36
2021/12/02 01:39:06;;;;;;;11.85;1.33;;;;;;;4.35;100.00;99848.44;5072417;28;20040;-41
2021/12/02 01:41:38;;;;;;;14.77;1.48;;;;;;;4.40;100.00;99879.59;5069989;28;20067;-35
2021/12/02 01:44:11;;;;;;;7.20;1.52;;;;;;;4.42;100.00;99879.31;5072989;28;20489;-36
2021/12/02 01:46:41;;;;;;;8.80;1.15;;;;;;;4.39;100.00;99883.50;5072357;28;20413;-32
2021/12/02 01:49:11;;;;;;;6.43;0.70;;;;;;;4.38;100.00;99884.59;5072654;28;20396;-37
2021/12/02 01:51:41;;;;;;;8.45;1.15;;;;;;;4.38;100.00;99886.53;5072953;28;20101;-36
2021/12/02 01:54:13;;;;;;;9.52;1.00;;;;;;;4.40;100.00;99895.34;5071967;28;20500;-32
2021/12/02 01:56:47;;;;;;;6.88;1.10;;;;;;;4.40;100.00;99898.94;5072668;28;20055;-35
2021/12/02 01:59:17;;;;;;;7.40;1.20;;;;;;;4.36;100.00;99888.75;5072370;28;20056;-35
2021/12/02 02:01:48;;;;;;;8.82;0.90;;;;;;;4.36;100.00;99891.53;5072583;28;20048;-34
2021/12/02 02:04:18;;;;;;;4.68;0.90;;;;;;;4.35;100.00;99893.44;5071722;28;20057;-38
2021/12/02 02:06:54;;;;;;;4.70;0.80;;;;;;;4.35;100.00;99898.97;5071677;28;20059;-31
2021/12/02 02:09:25;;;;;;;10.43;1.23;;;;;;;4.34;100.00;99891.78;5072634;28;20044;-39
2021/12/02 02:11:53;;;;;;;10.30;1.20;;;;;;;4.35;100.00;99898.16;5072475;28;20070;-37
2021/12/02 02:14:22;;;;;;;8.80;0.95;;;;;;;4.35;100.00;99892.63;5060617;28;20053;-36
2021/12/02 02:16:50;;;;;;;5.53;0.82;;;;;;;4.34;100.00;99886.28;5072132;28;20044;-33
2021/12/02 02:19:18;;;;;;;5.35;0.75;;;;;;;4.36;100.00;99897.03;5071951;28;20045;-31
2021/12/02 02:21:47;;;;;;;5.78;0.90;;;;;;;4.37;100.00;99894.00;5071491;28;20671;-31
2021/12/02 02:24:17;;;;;;;5.35;0.80;;;;;;;4.36;100.00;99900.63;5071963;28;20048;-30
2021/12/02 02:26:45;;;;;;;3.97;0.70;;;;;;;4.28;100.00;99901.19;5063180;28;20050;-37
2021/12/02 02:29:14;;;;;;;6.25;0.60;;;;;;;4.25;100.00;99889.88;5071770;28;20059;-33
2021/12/02 02:31:44;;;;;;;5.60;0.57;;;;;;;4.23;100.00;99890.16;5071874;28;20044;-32
2021/12/02 02:34:12;;;;;;;6.20;0.60;;;;;;;4.23;100.00;99883.81;5071126;28;20486;-29
2021/12/02 02:36:50;;;;;;;4.07;0.52;;;;;;;4.22;100.00;99882.97;5071895;28;20472;-34
2021/12/02 02:39:20;;;;;;;7.55;0.80;;;;;;;4.24;100.00;99875.25;5071926;28;20044;-32
2021/12/02 02:41:54;;;;;;;7.05;0.98;;;;;;;4.26;100.00;99877.72;5071047;28;20404;-31
2021/12/02 02:44:23;;;;;;;9.27;0.75;;;;;;;4.29;100.00;99875.25;5071765;28;20055;-33
2021/12/02 02:46:51;;;;;;;8.65;1.27;;;;;;;4.33;100.00;99879.09;5070858;28;20071;-30
2021/12/02 02:49:19;;;;;;;4.80;0.80;;;;;;;4.40;100.00;99879.59;5071222;28;20382;-35
2021/12/02 02:51:47;;;;;;;8.45;0.82;;;;;;;4.44;100.00;99886.22;5071220;28;20501;-34
2021/12/02 02:54:17;;;;;;;8.02;0.95;;;;;;;4.44;100.00;99875.16;5071649;28;20131;-38
2021/12/02 02:56:50;;;;;;;4.43;0.80;;;;;;;4.46;100.00;99872.94;5070536;28;20036;-32
2021/12/02 02:59:27;;;;;;;4.70;0.50;;;;;;;4.46;100.00;99866.59;5071792;28;20055;-30
2021/12/02 03:02:05;;;;;;;10.20;1.27;;;;;;;4.49;100.00;99861.34;5071441;28;20040;-33
2021/12/02 03:04:40;;;;;;;6.13;1.10;;;;;;;4.53;100.00;99867.13;5070732;28;20040;-34
2021/12/02 03:07:11;;;;;;;8.98;1.50;;;;;;;4.61;100.00;99857.41;5070936;28;20052;-36
2021/12/02 03:09:50;;;;;;;9.80;0.98;;;;;;;4.66;100.00;99871.19;5070758;28;20049;-30
2021/12/02 03:12:25;;;;;;;9.00;1.23;;;;;;;4.67;100.00;99883.91;5071204;28;20063;-33
2021/12/02 03:17:37;;;;;;;8.93;1.00;;;;;;;4.64;100.00;99873.41;5070052;28;20069;-34
2021/12/02 03:20:06;;;;;;;5.65;0.63;;;;;;;4.62;100.00;99892.22;5071301;28;20049;-35
2021/12/02 03:22:34;;;;;;;8.95;0.95;;;;;;;4.59;100.00;99893.63;5069612;28;20047;-34
2021/12/02 03:25:03;;;;;;;8.93;1.60;;;;;;;4.57;100.00;99879.28;5070961;28;20044;-31
2021/12/02 03:27:32;;;;;;;13.43;1.77;;;;;;;4.54;100.00;99890.06;5070912;28;20050;-31
2021/12/02 03:30:01;;;;;;;7.22;1.20;;;;;;;4.48;100.00;99895.59;5070271;28;20052;-42
2021/12/02 03:32:29;;;;;;;5.78;1.00;;;;;;;4.42;100.00;99902.25;5070212;28;20036;-40
2021/12/02 03:34:56;;;;;;;6.85;0.90;;;;;;;4.38;100.00;99898.41;5071086;28;20425;-31
2021/12/02 03:37:24;;;;;;;4.10;1.00;;;;;;;4.30;100.00;99889.88;5071521;28;20036;-35
2021/12/02 03:39:52;;;;;;;4.72;0.85;;;;;;;4.26;100.00;99903.41;5070818;28;20055;-34
2021/12/02 03:42:19;;;;;;;8.32;1.17;;;;;;;4.26;100.00;99897.88;5070832;28;20041;-34
2021/12/02 03:44:49;;;;;;;5.15;0.77;;;;;;;4.19;100.00;99911.19;5070148;28;20041;-31
2021/12/02 03:47:16;;;;;;;5.05;0.77;;;;;;;4.13;100.00;99915.88;5071041;28;20049;-38
2021/12/02 03:49:44;;;;;;;6.20;0.93;;;;;;;4.12;100.00;99921.69;5071148;28;20429;-34
2021/12/02 03:52:12;;;;;;;11.98;1.30;;;;;;;4.11;100.00;99920.03;5070583;28;20478;-33
2021/12/02 03:54:40;;;;;;;3.20;0.52;;;;;;;4.08;100.00;99915.88;5061947;28;20413;-33
2021/12/02 03:57:08;;;;;;;4.45;0.73;;;;;;;4.02;100.00;99921.69;5070503;28;20138;-32
2021/12/02 03:59:35;;;;;;;5.60;0.70;;;;;;;4.00;100.00;99902.66;5070280;28;20051;-38
2021/12/02 04:02:06;;;;;;;8.00;0.80;;;;;;;4.01;100.00;99915.34;5070899;28;20045;-33
2021/12/02 04:04:34;;;;;;;4.00;1.13;;;;;;;4.05;100.00;99901.81;5067357;28;20055;-34
2021/12/02 04:07:02;;;;;;;5.47;0.88;;;;;;;4.11;100.00;99904.28;5070385;28;20044;-35
2021/12/02 04:09:36;;;;;;;4.47;0.98;;;;;;;4.17;100.00;99905.13;5070377;28;20040;-36
2021/12/02 04:12:08;;;;;;;6.70;1.05;;;;;;;4.22;100.00;99905.06;5060749;28;20140;-41
2021/12/02 04:14:40;;;;;;;;;;;;;;;4.24;100.00;99908.38;5070546;28;20064;-30
2021/12/02 04:17:12;;;;;;;6.80;0.93;;;;;;;4.27;100.00;99905.06;5059915;28;19928;-33
2021/12/02 04:19:40;;;;;;;8.80;1.20;;;;;;;4.31;100.00;99928.25;5069820;28;20392;-35
2021/12/02 04:22:08;;;;;;;11.48;1.90;;;;;;;4.35;100.00;99934.06;5070551;28;20052;-33
2021/12/02 04:24:36;;;;;;;7.05;1.30;;;;;;;4.26;100.00;99944.84;5070437;28;20055;-37
2021/12/02 04:27:04;;;;;;;7.35;0.90;;;;;;;4.17;100.00;99954.81;5072821;28;20055;-30
2021/12/02 04:29:32;;;;;;;7.55;0.80;;;;;;;4.11;100.00;99958.69;5074223;28;20048;-37
2021/12/02 04:31:59;;;;;;;6.15;0.73;;;;;;;4.07;100.00;99960.34;5073965;28;20139;-34
2021/12/02 04:34:29;;;;;;;5.18;0.90;;;;;;;4.05;100.00;99937.69;5073434;28;20471;-37
2021/12/02 04:36:56;;;;;;;7.57;1.15;;;;;;;4.02;100.00;99933.56;5074065;28;20500;-38
2021/12/02 04:39:24;;;;;;;6.60;0.65;;;;;;;4.01;100.00;99931.06;5074035;28;20028;-36
2021/12/02 04:41:52;;;;;;;9.50;0.98;;;;;;;4.02;100.00;99935.50;5073608;28;20062;-35
2021/12/02 04:44:19;;;;;;;9.48;1.10;;;;;;;4.04;100.00;99930.53;5073931;28;20493;-29
2021/12/02 04:46:49;;;;;;;5.93;0.80;;;;;;;4.02;100.00;99916.16;5074087;28;20047;-35
2021/12/02 04:49:17;;;;;;;11.63;1.10;;;;;;;4.00;100.00;99912.84;5073272;28;20059;-36
2021/12/02 04:51:46;;;;;;;4.72;0.70;;;;;;;3.99;100.00;99925.03;5074211;28;20048;-36
2021/12/02 04:54:13;;;;;;;7.63;0.80;;;;;;;3.96;100.00;99925.59;5073762;28;20040;-35
2021/12/02 04:56:41;;;;;;;5.90;0.80;;;;;;;3.97;100.00;99932.75;5072960;28;20485;-32
2021/12/02 04:59:09;;;;;;;7.18;1.17;;;;;;;3.97;100.00;99922.56;5073312;28;20135;-31
2021/12/02 05:01:37;;;;;;;7.05;0.80;;;;;;;3.99;100.00;99925.88;5073138;28;20048;-30
2021/12/02 05:04:05;;;;;;;6.95;0.98;;;;;;;4.02;100.00;99921.69;5071660;28;20413;-36
2021/12/02 05:06:33;;;;;;;6.18;0.90;;;;;;;4.05;100.00;99923.91;5073463;28;20040;-36
2021/12/02 05:09:03;;;;;;;3.03;0.60;;;;;;;4.07;100.00;99925.28;5073168;28;20169;-32
2021/12/02 05:11:31;;;;;;;6.60;0.80;;;;;;;4.11;100.00;99925.53;5073256;28;20074;-30
2021/12/02 05:13:59;;;;;;;5.95;0.70;;;;;;;4.13;100.00;99926.09;5071676;28;20448;-31
2021/12/02 05:16:29;;;;;;;4.50;0.60;;;;;;;4.18;100.00;99923.34;5070927;28;20051;-36
2021/12/02 05:18:57;;;;;;;5.13;0.77;;;;;;;4.22;100.00;99924.41;5072256;28;20561;-36
2021/12/02 05:21:25;;;;;;;5.53;0.90;;;;;;;4.24;100.00;99924.94;5073295;28;20050;-35
2021/12/02 05:23:54;;;;;;;5.30;0.60;;;;;;;4.26;100.00;99939.31;5072896;28;20036;-34
2021/12/02 05:26:24;;;;;;;5.15;0.60;;;;;;;4.21;100.00;99960.56;5072963;28;20120;-29
2021/12/02 05:28:54;;;;;;;3.47;0.32;;;;;;;4.07;100.00;99952.06;5072935;28;20044;-32
2021/12/02 05:31:23;;;;;;;4.25;0.70;;;;;;;3.94;100.00;99952.63;5072403;28;20128;-33
2021/12/02 05:33:51;;;;;;;4.63;0.40;;;;;;;3.86;100.00;99939.38;5072837;28;20460;-35
2021/12/02 05:36:19;;;;;;;5.03;0.52;;;;;;;3.80;100.00;99924.75;5073109;28;20044;-37
2021/12/02 05:38:46;;;;;;;5.35;0.60;;;;;;;3.79;100.00;99918.44;5071245;28;20070;-35
2021/12/02 05:41:15;;;;;;;5.68;0.63;;;;;;;3.78;100.00;99915.94;5061745;28;20055;-36
2021/12/02 05:43:44;;;;;;;3.95;0.60;;;;;;;3.76;100.00;99927.25;5072715;28;20052;-32
2021/12/02 05:46:12;;;;;;;4.10;0.77;;;;;;;3.74;100.00;99931.41;5072354;28;20102;-32
2021/12/02 05:48:40;;;;;;;4.07;0.60;;;;;;;3.71;100.00;99949.34;5072895;28;20056;-36
2021/12/02 05:51:08;;;;;;;6.70;0.80;;;;;;;3.72;100.00;99955.69;5072198;28;20040;-32
2021/12/02 05:53:36;;;;;;;4.43;0.60;;;;;;;3.67;100.00;99973.06;5063570;28;20048;-31
2021/12/02 05:56:05;;;;;;;4.60;0.50;;;;;;;3.60;100.00;99985.44;5072461;28;20098;-32
2021/12/02 05:58:33;;;;;;;3.90;0.38;;;;;;;3.52;100.00;100000.63;5072073;28;20059;-32
2021/12/02 06:01:02;;;;;;;3.53;0.35;;;;;;;3.43;100.00;99996.75;5072468;28;20055;-37
2021/12/02 06:03:31;;;;;;;4.72;0.40;;;;;;;3.37;100.00;100009.72;5068257;28;20080;-34
2021/12/02 06:05:59;;;;;;;4.50;0.50;;;;;;;3.32;100.00;100006.13;5072030;28;20049;-32
2021/12/02 06:08:28;;;;;;;2.20;0.47;;;;;;;3.29;100.00;100006.66;5072037;28;20036;-37
2021/12/02 06:10:56;;;;;;;5.22;0.70;;;;;;;3.25;100.00;100000.84;5061620;28;20048;-33
2021/12/02 06:13:26;;;;;;;3.47;0.40;;;;;;;3.27;100.00;99997.81;5071476;28;20056;-39
2021/12/02 06:15:54;;;;;;;3.00;0.50;;;;;;;3.31;100.00;99993.44;5072416;28;20048;-34
2021/12/02 06:18:23;;;;;;;6.88;1.33;;;;;;;3.36;100.00;99993.44;5071954;28;20044;-32
2021/12/02 06:20:53;;;;;;;7.32;0.65;;;;;;;3.41;100.00;99994.25;5071366;28;20048;-38
2021/12/02 06:23:22;;;;;;;5.45;0.73;;;;;;;3.47;100.00;100000.63;5072205;28;20060;-37
2021/12/02 06:25:50;;;;;;;6.38;0.55;;;;;;;3.52;100.00;99997.88;5071211;28;20136;-40
2021/12/02 06:28:19;;;;;;;8.80;0.70;;;;;;;3.54;100.00;100003.13;5071517;28;20479;-36
2021/12/02 06:30:47;;;;;;;3.63;0.50;;;;;;;3.53;100.00;99998.72;5071811;28;20244;-33
2021/12/02 06:33:15;;;;;;;7.18;0.70;;;;;;;3.54;100.00;99998.44;5071877;28;20387;-37
2021/12/02 06:35:45;;;;;;;2.47;0.40;;;;;;;3.55;100.00;99991.81;5071555;28;20053;-31
2021/12/02 06:38:13;;;;;;;5.68;0.50;;;;;;;3.57;100.00;99986.84;5071902;28;20049;-36
2021/12/02 06:40:44;;;;;;;4.20;0.47;;;;;;;3.58;100.00;99994.03;5071287;28;20056;-31
2021/12/02 06:43:14;;;;;;;4.90;0.80;;;;;;;3.60;100.00;99990.97;5071429;28;20066;-34
2021/12/02 06:45:42;;;;;;;6.95;0.50;;;;;;;3.61;100.00;99992.63;5070422;28;20123;-35
2021/12/02 06:48:10;;;;;;;5.22;0.60;;;;;;;3.61;100.00;100000.91;5069951;28;20053;-33
2021/12/02 06:50:39;;;;;;;5.93;0.73;;;;;;;3.63;100.00;99993.19;5070245;28;20054;-33
2021/12/02 06:53:08;;;;;;;4.25;0.70;;;;;;;3.65;100.00;99993.75;5070526;28;20155;-37
2021/12/02 06:55:36;;;;;;;6.40;0.60;;;;;;;3.66;100.00;99996.22;5069782;28;20076;-31
2021/12/02 06:58:04;;;;;;;7.68;0.90;;;;;;;3.68;100.00;100010.56;5070370;28;20059;-32
2021/12/02 07:00:32;;;;;;;7.50;0.73;;;;;;;3.69;100.00;100011.41;5068080;28;20047;-36
2021/12/02 07:03:01;;;;;;;7.10;0.90;;;;;;;3.68;100.00;100018.03;5069563;28;20131;-34
2021/12/02 07:05:32;;;;;;;7.15;0.80;;;;;;;3.66;100.00;100007.25;5070280;28;20049;-37
2021/12/02 07:08:00;;;;;;;3.90;0.52;;;;;;;3.65;100.00;100010.28;5070304;28;20048;-35
2021/12/02 07:10:31;;;;;;;4.40;0.60;;;;;;;3.63;100.00;100016.09;5067872;28;20429;-35
2021/12/02 07:13:00;;;;;;;5.15;0.52;;;;;;;3.62;100.00;100019.09;5059451;28;20363;-38
2021/12/02 07:15:31;;;;;;;6.55;0.73;;;;;;;3.63;100.00;100015.25;5069712;28;20060;-33
2021/12/02 07:18:00;;;;;;;5.38;0.80;;;;;;;3.65;100.00;100030.44;5070047;28;20067;-30
2021/12/02 07:20:30;;;;;;;8.43;1.15;;;;;;;3.73;100.00;100034.59;5069453;28;20055;-36
2021/12/02 07:22:58;;;;;;;8.02;0.90;;;;;;;3.78;100.00;100034.59;5070430;28;20052;-35
2021/12/02 07:25:26;;;;;;;11.27;1.60;;;;;;;3.84;100.00;100036.25;5070108;28;20052;-40
2021/12/02 07:27:56;;;;;;;5.15;0.60;;;;;;;3.91;100.00;100041.50;5069562;28;20308;-33
2021/12/02 07:30:24;;;;;;;7.20;0.77;;;;;;;3.92;100.00;100029.34;5068379;28;20056;-35
2021/12/02 07:32:54;;;;;;;4.80;1.02;;;;;;;3.93;100.00;100036.53;5069538;28;20058;-33
2021/12/02 07:35:22;;;;;;;5.40;1.00;;;;;;;3.93;100.00;100039.28;5069988;28;20493;-38
2021/12/02 07:37:52;;;;;;;5.38;0.70;;;;;;;3.95;100.00;100043.44;5068924;28;20080;-30
2021/12/02 07:40:22;;;;;;;9.35;0.75;;;;;;;3.95;100.00;100039.84;5069529;28;20075;-36
2021/12/02 07:42:52;;;;;;;6.50;0.68;;;;;;;3.97;100.00;100045.94;5069876;28;20413;-35
2021/12/02 07:45:24;;;;;;;4.45;0.70;;;;;;;3.98;100.00;100050.34;5070393;28;20110;-36
2021/12/02 07:47:52;;;;;;;5.63;0.70;;;;;;;4.02;100.00;100051.41;5070816;28;20049;-33
2021/12/02 07:50:21;;;;;;;6.78;1.00;;;;;;;4.04;100.00;100063.03;5070851;28;20044;-32
2021/12/02 07:52:50;;;;;;;3.58;0.57;;;;;;;4.07;100.00;100065.22;5070332;28;20051;-31
2021/12/02 07:55:19;;;;;;;4.28;0.70;;;;;;;4.06;100.00;100067.16;5071003;28;20076;-34
2021/12/02 07:57:48;;;;;;;4.53;0.40;;;;;;;4.05;100.00;100081.25;5061466;28;20064;-39
2021/12/02 08:00:18;;;;;;;4.07;0.70;;;;;;;4.03;100.00;100083.44;5070602;28;20494;-32
2021/12/02 08:02:50;;;;;;;3.60;0.50;;;;;;;4.00;100.00;100092.28;5074288;28;20067;-32
2021/12/02 08:05:21;;;;;;;5.28;0.60;;;;;;;3.97;100.00;100095.59;5074268;28;20468;-37
2021/12/02 08:07:49;;;;;;;2.10;0.60;;;;;;;3.94;100.00;100090.63;5074728;28;20105;-34
2021/12/02 08:10:17;;;;;;;6.07;0.60;;;;;;;3.94;100.00;100091.47;5074551;28;20048;-36
2021/12/02 08:12:48;;;;;;;3.38;0.65;;;;;;;3.93;100.00;100097.25;5073995;28;20049;-28
2021/12/02 08:15:19;;;;;;;3.88;0.75;;;;;;;3.91;100.00;100110.50;5074818;28;20045;-32
2021/12/02 08:17:48;;;;;;;3.97;0.77;;;;;;;3.93;100.00;100108.28;5074024;28;20047;-35
2021/12/02 08:20:17;;;;;;;2.88;0.50;;;;;;;3.95;100.00;100111.63;5063539;28;20041;-33
2021/12/02 08:22:45;;;;;;;2.88;0.63;;;;;;;3.96;100.00;100124.31;5074283;28;20051;-31
2021/12/02 08:25:14;;;;;;;4.75;0.80;;;;;;;3.97;100.00;100129.56;5074422;28;20063;-35
2021/12/02 08:27:42;;;;;;;3.28;0.60;;;;;;;3.99;100.00;100126.53;5073603;28;20041;-34
2021/12/02 08:30:12;;;;;;;9.70;0.93;;;;;;;4.04;100.00;100129.28;5074222;28;20040;-27
2021/12/02 08:32:42;;;;;;;3.67;0.60;;;;;;;4.09;100.00;100134.81;5074097;28;20052;-32
2021/12/02 08:35:11;;;;;;;6.10;0.70;;;;;;;4.12;100.00;100137.03;5072899;28;20070;-34
2021/12/02 08:37:43;;;;;;;3.60;0.50;;;;;;;4.09;100.00;100137.56;5073929;28;20492;-38
2021/12/02 08:40:13;;;;;;;5.00;0.88;;;;;;;4.07;100.00;100142.53;5073295;28;20055;-33
2021/12/02 08:42:41;;;;;;;5.70;0.40;;;;;;;4.06;100.00;100149.16;5073698;28;20045;-35
2021/12/02 08:45:10;;;;;;;5.13;0.63;;;;;;;4.05;100.00;100175.94;5074002;28;20049;-35
2021/12/02 08:47:43;;;;;;;6.45;0.80;;;;;;;4.06;100.00;100168.47;5073252;28;20512;-36
2021/12/02 08:50:15;;;;;;;2.80;0.40;;;;;;;4.05;100.00;100169.56;5073826;28;20070;-37
2021/12/02 08:52:43;;;;;;;5.53;0.70;;;;;;;4.06;100.00;100180.34;5073825;28;20053;-40
2021/12/02 08:55:11;;;;;;;7.93;0.70;;;;;;;4.08;100.00;100180.91;5073047;28;20059;-34
2021/12/02 08:57:46;;;;;;;3.75;0.60;;;;;;;4.10;100.00;100197.22;5073839;28;20076;-35
2021/12/02 09:00:17;;;;;;;7.38;1.13;;;;;;;4.09;100.00;100220.38;5073666;28;20048;-28
2021/12/02 09:02:45;;;;;;;3.25;0.50;;;;;;;4.06;100.00;100231.97;5072940;28;20136;-34
2021/12/02 09:05:16;;;;;;;3.85;0.40;;;;;;;4.03;100.00;100235.28;5073766;28;20041;-30
2021/12/02 09:07:44;;;;;;;3.20;0.50;;;;;;;3.98;100.00;100224.25;5073253;28;20543;-36
2021/12/02 09:10:15;;;;;;;3.60;0.40;;;;;;;3.94;100.00;100223.13;5073316;28;20049;-31
2021/12/02 09:12:45;;;;;;;1.55;0.40;;;;;;;3.90;100.00;100231.09;5073157;28;20552;-35
2021/12/02 09:15:13;;;;;;;2.33;0.38;;;;;;;3.89;100.00;100231.38;5072893;28;20078;-35
2021/12/02 09:17:41;;;;;;;2.40;0.30;;;;;;;3.88;100.00;100240.75;5073231;28;20056;-30
2021/12/02 09:20:11;;;;;;;3.15;0.50;;;;;;;3.89;100.00;100239.66;5073028;28;20044;-27
2021/12/02 09:22:40;;;;;;;2.42;0.40;;;;;;;3.90;100.00;100231.09;5072877;28;20508;-40
2021/12/02 09:25:09;;;;;;;0.82;0.20;;;;;;;3.92;100.00;100241.88;5073202;28;20142;-33
2021/12/02 09:27:37;;;;;;;2.33;0.30;;;;;;;3.94;100.00;100246.03;5073407;28;20060;-35
2021/12/02 09:30:07;;;;;;;2.10;0.40;;;;;;;3.97;100.00;100241.91;5072393;28;20535;-33
2021/12/02 09:32:36;;;;;;;2.35;0.70;;;;;;;3.99;100.00;100248.81;5072962;28;20052;-37
2021/12/02 09:35:05;;;;;;;2.80;0.60;;;;;;;4.01;100.00;100281.63;5072875;28;20055;-35
2021/12/02 09:37:33;;;;;;;2.30;0.98;;;;;;;4.03;100.00;100282.19;5072539;28;20044;-28
2021/12/02 09:40:09;;;;;;;4.55;1.60;;;;;;;4.07;100.00;100280.56;5072742;28;20509;-39
2021/12/02 09:42:37;;;;;;;2.72;0.95;;;;;;;4.10;100.00;100266.22;5070173;28;20520;-36
2021/12/02 09:45:06;;;;;;;3.58;0.90;;;;;;;4.05;100.00;100264.28;5072049;28;20391;-37
2021/12/02 09:47:37;;;;;;;2.00;0.55;;;;;;;4.05;100.00;100274.47;5071841;28;20404;-35
2021/12/02 09:50:12;;;;;;;3.10;1.20;;;;;;;4.06;100.00;100281.66;5073084;28;20135;-30
2021/12/02 09:52:42;;;;;;;5.13;2.67;;;;;;;4.05;100.00;100291.03;5072426;28;20040;-38
2021/12/02 09:55:19;;;;;;;3.25;1.45;;;;;;;4.06;100.00;100296.31;5072620;28;20051;-30
2021/12/02 09:57:51;;;;;;;6.47;2.17;;;;;;;4.06;100.00;100298.22;5071525;28;20048;-34
2021/12/02 10:00:22;;;;;;;7.55;2.58;;;;;;;4.10;100.00;100302.13;5072657;28;20047;-34
2021/12/02 10:02:55;;;;;;;5.43;1.90;;;;;;;4.11;100.00;100312.06;5072594;28;20068;-36
2021/12/02 10:05:31;;;;;;;4.10;0.93;;;;;;;4.18;100.00;100304.38;5072010;28;20114;-38
2021/12/02 10:08:04;;;;;;;2.08;0.70;;;;;;;4.33;100.00;100314.63;5072282;28;20071;-35
2021/12/02 10:10:38;;;;;;;3.08;0.88;;;;;;;4.74;100.00;100301.75;5072391;28;20516;-34
2021/12/02 10:13:15;;;;;;;6.70;1.08;;;;;;;5.29;100.00;100308.38;5071769;28;20040;-33
2021/12/02 10:15:52;;;;;;;3.22;1.63;;;;;;;5.93;100.00;100316.88;5072355;28;20076;-31
2021/12/02 10:18:24;;;;;;;3.97;0.75;;;;;;;6.50;100.00;100305.25;5071836;28;20406;-30
2021/12/02 10:20:52;;;;;;;4.20;0.77;;;;;;;6.98;100.00;100315.78;5072233;28;20053;-33
2021/12/02 10:23:23;;;;;;;4.07;0.65;;;;;;;7.40;100.00;100315.13;5071718;28;20343;-40
2021/12/02 10:25:59;;;;;;;3.13;0.70;;;;;;;7.77;100.00;100317.28;5071346;28;20055;-35
2021/12/02 10:28:29;;;;;;;3.78;0.82;;;;;;;8.10;99.76;100315.50;5072006;28;20059;-35
2021/12/02 10:30:59;;;;;;;6.22;0.70;;;;;;;8.39;96.71;100321.84;5071816;28;20076;-40
2021/12/02 10:33:32;;;;;;;2.22;0.60;;;;;;;8.70;94.49;100332.53;5070865;28;20044;-38
2021/12/02 10:36:06;;;;;;;4.47;0.70;;;;;;;8.92;91.99;100330.00;5070513;28;20435;-39
2021/12/02 10:38:36;;;;;;;5.13;0.75;;;;;;;9.06;89.07;100328.09;5071817;28;20048;-36
2021/12/02 10:41:08;;;;;;;3.58;0.68;;;;;;;9.21;88.66;100321.44;5070922;28;20142;-36
2021/12/02 10:43:36;;;;;;;4.10;0.65;;;;;;;9.37;86.07;100322.06;5071724;28;20063;-34
2021/12/02 10:46:16;;;;;;;5.07;1.25;;;;;;;9.52;85.63;100325.41;5071609;28;20135;-35
2021/12/02 10:48:50;;;;;;;4.28;0.63;;;;;;;9.63;83.76;100321.28;5071103;28;20044;-37
2021/12/02 10:51:35;;;;;;;3.50;0.80;;;;;;;9.76;82.76;100324.41;5071496;28;20044;-32
2021/12/02 10:54:08;;;;;;;3.45;0.85;;;;;;;9.89;83.26;100335.56;5070892;28;20056;-35
2021/12/02 10:56:38;;;;;;;;;;;;;;;9.96;79.60;100341.59;5071953;28;20072;-34
2021/12/02 10:59:41;;;;;;;4.32;0.60;;;;;;;9.62;78.26;100353.06;5071531;28;19974;-37
2021/12/02 11:02:20;;;;;;;4.43;0.60;;;;;;;9.11;80.65;100343.91;5028014;28;20041;-41
2021/12/02 11:04:53;;;;;;;5.60;0.98;;;;;;;8.70;81.01;100344.50;5028868;28;20136;-35
2021/12/02 11:07:24;;;;;;;2.88;0.70;;;;;;;8.37;81.57;100335.22;5044654;28;20052;-32
2021/12/02 11:09:54;;;;;;;5.47;1.20;;;;;;;8.15;82.56;100334.91;5070457;28;20504;-32
2021/12/02 11:12:26;;;;;;;2.05;0.70;;;;;;;7.92;83.39;100340.16;5071293;28;20383;-31
2021/12/02 11:15:06;;;;;;;4.00;1.20;;;;;;;7.78;83.75;100357.81;5071100;28;20070;-34
2021/12/02 11:17:38;;;;;;;3.72;0.95;;;;;;;7.58;83.96;100361.63;5061512;28;20408;-32
2021/12/02 11:20:09;;;;;;;5.32;0.90;;;;;;;7.35;84.62;100365.97;5071220;28;20053;-37
2021/12/02 11:22:37;;;;;;;9.70;0.98;;;;;;;7.19;85.61;100361.66;5070456;28;20405;-33
2021/12/02 11:25:09;;;;;;;4.38;0.82;;;;;;;7.17;87.45;100364.72;5070586;28;20044;-34
2021/12/02 11:27:41;;;;;;;6.45;1.27;;;;;;;7.35;88.79;100374.28;5070645;28;20047;-38
2021/12/02 11:30:12;;;;;;;6.87;0.90;;;;;;;7.55;88.88;100359.41;5070262;28;20045;-29
2021/12/02 11:32:46;;;;;;;7.10;1.20;;;;;;;7.60;87.96;100362.13;5070823;28;20044;-36
2021/12/02 11:35:18;;;;;;;7.07;1.33;;;;;;;7.62;88.30;100365.44;5070430;28;20059;-31
2021/12/02 11:37:48;;;;;;;7.37;1.10;;;;;;;7.65;87.81;100370.41;5070025;28;20051;-36
2021/12/02 11:40:22;;;;;;;8.43;1.50;;;;;;;7.66;88.39;100371.25;5070924;28;20299;-38
2021/12/02 11:42:52;;;;;;;4.30;1.00;;;;;;;7.72;88.36;100382.03;5070457;28;20053;-32
2021/12/02 11:45:23;;;;;;;3.88;0.80;;;;;;;7.79;88.88;100390.03;5070787;28;20416;-32
2021/12/02 11:47:52;;;;;;;5.45;0.93;;;;;;;7.80;88.82;100388.88;5070661;28;20048;-34
2021/12/02 11:50:23;;;;;;;6.82;1.05;;;;;;;7.73;87.59;100391.19;5070672;28;20052;-34